sensor_id;sensor_type;location;lat;lon;timestamp;temperature;humidity
75170;SHT31;63749;49.186;9.222;2023-07-08T00:01:09;20.11;51.53
75170;SHT31;63749;49.186;9.222;2023-07-08T00:03:36;20.15;51.66
75170;SHT31;63749;49.186;9.222;2023-07-08T00:06:01;20.21;51.50
75170;SHT31;63749;49.186;9.222;2023-07-08T00:08:27;20.13;52.37
75170;SHT31;63749;49.186;9.222;2023-07-08T00:10:52;20.06;52.94
75170;SHT31;63749;49.186;9.222;2023-07-08T00:13:18;20.04;52.26
75170;SHT31;63749;49.186;9.222;2023-07-08T00:15:44;20.04;51.89
75170;SHT31;63749;49.186;9.222;2023-07-08T00:18:15;20.00;52.25
75170;SHT31;63749;49.186;9.222;2023-07-08T00:20:46;19.98;52.11
75170;SHT31;63749;49.186;9.222;2023-07-08T00:23:12;19.91;51.95
75170;SHT31;63749;49.186;9.222;2023-07-08T00:25:38;19.83;52.01
75170;SHT31;63749;49.186;9.222;2023-07-08T00:28:09;19.83;51.88
75170;SHT31;63749;49.186;9.222;2023-07-08T00:30:35;19.76;52.10
75170;SHT31;63749;49.186;9.222;2023-07-08T00:33:00;19.73;51.93
75170;SHT31;63749;49.186;9.222;2023-07-08T00:35:36;19.69;52.25
75170;SHT31;63749;49.186;9.222;2023-07-08T00:38:04;19.67;51.95
75170;SHT31;63749;49.186;9.222;2023-07-08T00:40:34;19.62;52.14
75170;SHT31;63749;49.186;9.222;2023-07-08T00:43:03;19.50;52.41
75170;SHT31;63749;49.186;9.222;2023-07-08T00:48:06;19.62;52.21
75170;SHT31;63749;49.186;9.222;2023-07-08T00:50:32;19.74;51.78
75170;SHT31;63749;49.186;9.222;2023-07-08T00:53:32;19.74;52.32
75170;SHT31;63749;49.186;9.222;2023-07-08T00:56:44;19.71;52.62
75170;SHT31;63749;49.186;9.222;2023-07-08T00:59:18;19.69;52.42
75170;SHT31;63749;49.186;9.222;2023-07-08T01:01:44;19.57;52.28
75170;SHT31;63749;49.186;9.222;2023-07-08T01:04:18;19.57;52.34
75170;SHT31;63749;49.186;9.222;2023-07-08T01:06:47;19.55;53.06
75170;SHT31;63749;49.186;9.222;2023-07-08T01:09:18;19.60;53.49
75170;SHT31;63749;49.186;9.222;2023-07-08T01:11:43;19.53;54.65
75170;SHT31;63749;49.186;9.222;2023-07-08T01:14:11;19.45;54.71
75170;SHT31;63749;49.186;9.222;2023-07-08T01:16:37;19.40;54.24
75170;SHT31;63749;49.186;9.222;2023-07-08T01:19:04;19.40;55.47
75170;SHT31;63749;49.186;9.222;2023-07-08T01:24:14;19.26;55.96
75170;SHT31;63749;49.186;9.222;2023-07-08T01:26:42;19.18;56.82
75170;SHT31;63749;49.186;9.222;2023-07-08T01:29:09;19.07;58.72
75170;SHT31;63749;49.186;9.222;2023-07-08T01:31:35;19.01;58.43
75170;SHT31;63749;49.186;9.222;2023-07-08T01:34:00;18.89;58.59
75170;SHT31;63749;49.186;9.222;2023-07-08T01:36:30;18.84;57.12
75170;SHT31;63749;49.186;9.222;2023-07-08T01:38:57;18.84;57.42
75170;SHT31;63749;49.186;9.222;2023-07-08T01:41:22;18.83;56.85
75170;SHT31;63749;49.186;9.222;2023-07-08T01:43:48;18.81;56.67
75170;SHT31;63749;49.186;9.222;2023-07-08T01:46:26;18.72;56.36
75170;SHT31;63749;49.186;9.222;2023-07-08T01:48:56;18.74;57.08
75170;SHT31;63749;49.186;9.222;2023-07-08T01:51:24;18.71;56.93
75170;SHT31;63749;49.186;9.222;2023-07-08T01:53:50;18.78;55.22
75170;SHT31;63749;49.186;9.222;2023-07-08T01:56:16;18.65;58.06
75170;SHT31;63749;49.186;9.222;2023-07-08T01:58:42;18.67;57.64
75170;SHT31;63749;49.186;9.222;2023-07-08T02:01:08;18.67;56.78
75170;SHT31;63749;49.186;9.222;2023-07-08T02:03:34;18.63;56.16
75170;SHT31;63749;49.186;9.222;2023-07-08T02:06:00;18.67;55.64
75170;SHT31;63749;49.186;9.222;2023-07-08T02:08:25;18.64;55.53
75170;SHT31;63749;49.186;9.222;2023-07-08T02:10:54;18.60;55.35
75170;SHT31;63749;49.186;9.222;2023-07-08T02:13:20;18.51;55.86
75170;SHT31;63749;49.186;9.222;2023-07-08T02:15:45;18.56;55.42
75170;SHT31;63749;49.186;9.222;2023-07-08T02:18:11;18.49;55.67
75170;SHT31;63749;49.186;9.222;2023-07-08T02:20:36;18.50;56.24
75170;SHT31;63749;49.186;9.222;2023-07-08T02:23:01;18.46;55.70
75170;SHT31;63749;49.186;9.222;2023-07-08T02:25:27;18.41;55.85
75170;SHT31;63749;49.186;9.222;2023-07-08T02:27:52;18.34;56.18
75170;SHT31;63749;49.186;9.222;2023-07-08T02:30:24;18.30;56.69
75170;SHT31;63749;49.186;9.222;2023-07-08T02:32:50;18.19;56.82
75170;SHT31;63749;49.186;9.222;2023-07-08T02:35:26;18.26;57.97
75170;SHT31;63749;49.186;9.222;2023-07-08T02:37:53;18.19;57.33
75170;SHT31;63749;49.186;9.222;2023-07-08T02:40:19;18.03;57.75
75170;SHT31;63749;49.186;9.222;2023-07-08T02:42:44;17.96;58.00
75170;SHT31;63749;49.186;9.222;2023-07-08T02:45:11;17.91;58.25
75170;SHT31;63749;49.186;9.222;2023-07-08T02:47:36;17.95;58.00
75170;SHT31;63749;49.186;9.222;2023-07-08T02:50:02;17.91;58.16
75170;SHT31;63749;49.186;9.222;2023-07-08T02:52:27;17.79;59.96
75170;SHT31;63749;49.186;9.222;2023-07-08T02:54:52;17.65;61.98
75170;SHT31;63749;49.186;9.222;2023-07-08T02:57:18;17.54;62.68
75170;SHT31;63749;49.186;9.222;2023-07-08T02:59:43;17.45;63.82
75170;SHT31;63749;49.186;9.222;2023-07-08T03:02:08;17.38;64.10
75170;SHT31;63749;49.186;9.222;2023-07-08T03:04:34;17.32;65.71
75170;SHT31;63749;49.186;9.222;2023-07-08T03:07:04;17.23;66.46
75170;SHT31;63749;49.186;9.222;2023-07-08T03:09:29;17.14;66.87
75170;SHT31;63749;49.186;9.222;2023-07-08T03:11:54;17.11;66.85
75170;SHT31;63749;49.186;9.222;2023-07-08T03:14:20;17.11;67.04
75170;SHT31;63749;49.186;9.222;2023-07-08T03:16:45;17.09;67.37
75170;SHT31;63749;49.186;9.222;2023-07-08T03:19:11;17.07;66.17
75170;SHT31;63749;49.186;9.222;2023-07-08T03:21:40;17.07;64.02
75170;SHT31;63749;49.186;9.222;2023-07-08T03:24:05;17.16;62.27
75170;SHT31;63749;49.186;9.222;2023-07-08T03:26:30;17.26;61.42
75170;SHT31;63749;49.186;9.222;2023-07-08T03:28:56;17.23;62.07
75170;SHT31;63749;49.186;9.222;2023-07-08T03:31:21;17.21;61.77
75170;SHT31;63749;49.186;9.222;2023-07-08T03:33:46;17.20;61.38
75170;SHT31;63749;49.186;9.222;2023-07-08T03:36:15;17.13;62.92
75170;SHT31;63749;49.186;9.222;2023-07-08T03:38:52;17.04;65.49
75170;SHT31;63749;49.186;9.222;2023-07-08T03:41:18;16.97;66.45
75170;SHT31;63749;49.186;9.222;2023-07-08T03:43:43;16.92;66.95
75170;SHT31;63749;49.186;9.222;2023-07-08T03:46:16;16.83;67.80
75170;SHT31;63749;49.186;9.222;2023-07-08T03:48:41;16.77;68.27
75170;SHT31;63749;49.186;9.222;2023-07-08T03:51:15;16.77;68.12
75170;SHT31;63749;49.186;9.222;2023-07-08T03:53:42;16.77;65.88
75170;SHT31;63749;49.186;9.222;2023-07-08T03:56:11;16.79;66.31
75170;SHT31;63749;49.186;9.222;2023-07-08T03:58:38;16.72;66.48
75170;SHT31;63749;49.186;9.222;2023-07-08T04:01:04;16.73;66.79
75170;SHT31;63749;49.186;9.222;2023-07-08T04:03:29;16.69;67.09
75170;SHT31;63749;49.186;9.222;2023-07-08T04:05:55;16.72;67.00
75170;SHT31;63749;49.186;9.222;2023-07-08T04:08:20;16.71;66.97
75170;SHT31;63749;49.186;9.222;2023-07-08T04:10:46;16.73;67.03
75170;SHT31;63749;49.186;9.222;2023-07-08T04:13:11;16.76;66.75
75170;SHT31;63749;49.186;9.222;2023-07-08T04:15:37;16.84;65.94
75170;SHT31;63749;49.186;9.222;2023-07-08T04:18:02;16.96;65.73
75170;SHT31;63749;49.186;9.222;2023-07-08T04:20:27;17.07;65.47
75170;SHT31;63749;49.186;9.222;2023-07-08T04:22:53;17.13;65.13
75170;SHT31;63749;49.186;9.222;2023-07-08T04:25:18;17.17;64.82
75170;SHT31;63749;49.186;9.222;2023-07-08T04:27:44;17.28;64.99
75170;SHT31;63749;49.186;9.222;2023-07-08T04:30:20;17.44;64.97
75170;SHT31;63749;49.186;9.222;2023-07-08T04:32:46;17.57;65.54
75170;SHT31;63749;49.186;9.222;2023-07-08T04:35:11;17.69;65.46
75170;SHT31;63749;49.186;9.222;2023-07-08T04:37:37;17.79;65.06
75170;SHT31;63749;49.186;9.222;2023-07-08T04:40:03;17.89;64.38
75170;SHT31;63749;49.186;9.222;2023-07-08T04:42:30;17.98;63.98
75170;SHT31;63749;49.186;9.222;2023-07-08T04:44:55;18.09;63.86
75170;SHT31;63749;49.186;9.222;2023-07-08T04:47:20;18.22;63.31
75170;SHT31;63749;49.186;9.222;2023-07-08T04:49:46;18.37;62.42
75170;SHT31;63749;49.186;9.222;2023-07-08T04:52:12;18.54;62.01
75170;SHT31;63749;49.186;9.222;2023-07-08T04:54:37;18.72;61.79
75170;SHT31;63749;49.186;9.222;2023-07-08T04:57:04;18.85;61.21
75170;SHT31;63749;49.186;9.222;2023-07-08T04:59:29;18.95;60.58
75170;SHT31;63749;49.186;9.222;2023-07-08T05:01:59;19.05;59.78
75170;SHT31;63749;49.186;9.222;2023-07-08T05:04:25;19.14;59.29
75170;SHT31;63749;49.186;9.222;2023-07-08T05:06:50;19.15;58.01
75170;SHT31;63749;49.186;9.222;2023-07-08T05:09:16;19.12;58.11
75170;SHT31;63749;49.186;9.222;2023-07-08T05:11:42;19.18;57.72
75170;SHT31;63749;49.186;9.222;2023-07-08T05:14:07;19.36;57.69
75170;SHT31;63749;49.186;9.222;2023-07-08T05:16:34;19.55;57.79
75170;SHT31;63749;49.186;9.222;2023-07-08T05:19:00;19.59;57.26
75170;SHT31;63749;49.186;9.222;2023-07-08T05:21:26;19.65;57.00
75170;SHT31;63749;49.186;9.222;2023-07-08T05:23:55;19.83;55.56
75170;SHT31;63749;49.186;9.222;2023-07-08T05:26:20;20.01;55.39
75170;SHT31;63749;49.186;9.222;2023-07-08T05:28:47;20.15;55.61
75170;SHT31;63749;49.186;9.222;2023-07-08T05:31:12;20.28;54.53
75170;SHT31;63749;49.186;9.222;2023-07-08T05:33:37;20.45;54.04
75170;SHT31;63749;49.186;9.222;2023-07-08T05:36:03;20.66;53.15
75170;SHT31;63749;49.186;9.222;2023-07-08T05:38:28;20.89;52.90
75170;SHT31;63749;49.186;9.222;2023-07-08T05:40:55;21.10;52.28
75170;SHT31;63749;49.186;9.222;2023-07-08T05:43:21;21.24;52.40
75170;SHT31;63749;49.186;9.222;2023-07-08T05:45:47;21.41;51.97
75170;SHT31;63749;49.186;9.222;2023-07-08T05:48:12;21.57;51.28
75170;SHT31;63749;49.186;9.222;2023-07-08T05:50:39;21.71;50.59
75170;SHT31;63749;49.186;9.222;2023-07-08T05:53:05;21.98;50.03
75170;SHT31;63749;49.186;9.222;2023-07-08T05:55:31;22.24;49.42
75170;SHT31;63749;49.186;9.222;2023-07-08T05:57:57;22.52;49.03
75170;SHT31;63749;49.186;9.222;2023-07-08T06:00:22;22.63;47.97
75170;SHT31;63749;49.186;9.222;2023-07-08T06:02:48;22.70;47.89
75170;SHT31;63749;49.186;9.222;2023-07-08T06:05:13;22.97;48.16
75170;SHT31;63749;49.186;9.222;2023-07-08T06:07:38;23.08;47.42
75170;SHT31;63749;49.186;9.222;2023-07-08T06:10:04;23.29;47.61
75170;SHT31;63749;49.186;9.222;2023-07-08T06:12:30;23.58;46.08
75170;SHT31;63749;49.186;9.222;2023-07-08T06:14:56;23.83;45.75
75170;SHT31;63749;49.186;9.222;2023-07-08T06:17:21;24.03;45.08
75170;SHT31;63749;49.186;9.222;2023-07-08T06:19:47;24.21;45.34
75170;SHT31;63749;49.186;9.222;2023-07-08T06:22:12;24.45;45.03
75170;SHT31;63749;49.186;9.222;2023-07-08T06:24:37;24.62;44.90
75170;SHT31;63749;49.186;9.222;2023-07-08T06:27:03;24.65;45.28
75170;SHT31;63749;49.186;9.222;2023-07-08T06:29:28;24.48;45.21
75170;SHT31;63749;49.186;9.222;2023-07-08T06:31:54;24.51;45.25
75170;SHT31;63749;49.186;9.222;2023-07-08T06:34:19;24.30;44.74
75170;SHT31;63749;49.186;9.222;2023-07-08T06:36:47;23.99;45.65
75170;SHT31;63749;49.186;9.222;2023-07-08T06:39:16;23.90;46.24
75170;SHT31;63749;49.186;9.222;2023-07-08T06:41:42;23.84;46.90
75170;SHT31;63749;49.186;9.222;2023-07-08T06:44:07;23.69;48.19
75170;SHT31;63749;49.186;9.222;2023-07-08T06:46:33;23.56;48.71
75170;SHT31;63749;49.186;9.222;2023-07-08T06:48:59;23.38;49.55
75170;SHT31;63749;49.186;9.222;2023-07-08T06:51:25;23.18;49.92
75170;SHT31;63749;49.186;9.222;2023-07-08T06:53:50;23.01;50.48
75170;SHT31;63749;49.186;9.222;2023-07-08T06:56:16;22.86;50.29
75170;SHT31;63749;49.186;9.222;2023-07-08T06:58:41;22.78;49.67
75170;SHT31;63749;49.186;9.222;2023-07-08T07:01:07;22.71;50.07
75170;SHT31;63749;49.186;9.222;2023-07-08T07:03:32;22.64;50.07
75170;SHT31;63749;49.186;9.222;2023-07-08T07:05:57;23.11;49.30
75170;SHT31;63749;49.186;9.222;2023-07-08T07:08:23;23.42;47.83
75170;SHT31;63749;49.186;9.222;2023-07-08T07:10:48;23.67;48.28
75170;SHT31;63749;49.186;9.222;2023-07-08T07:13:13;23.83;48.19
75170;SHT31;63749;49.186;9.222;2023-07-08T07:15:39;24.00;47.91
75170;SHT31;63749;49.186;9.222;2023-07-08T07:18:04;24.20;47.86
75170;SHT31;63749;49.186;9.222;2023-07-08T07:20:30;24.37;46.47
75170;SHT31;63749;49.186;9.222;2023-07-08T07:22:58;24.59;46.25
75170;SHT31;63749;49.186;9.222;2023-07-08T07:25:24;24.68;44.73
75170;SHT31;63749;49.186;9.222;2023-07-08T07:27:49;24.80;43.25
75170;SHT31;63749;49.186;9.222;2023-07-08T07:30:15;25.02;42.09
75170;SHT31;63749;49.186;9.222;2023-07-08T07:32:43;25.24;42.23
75170;SHT31;63749;49.186;9.222;2023-07-08T07:35:10;25.51;43.65
75170;SHT31;63749;49.186;9.222;2023-07-08T07:37:38;25.68;41.20
75170;SHT31;63749;49.186;9.222;2023-07-08T07:40:06;25.84;40.91
75170;SHT31;63749;49.186;9.222;2023-07-08T07:42:32;25.88;41.36
75170;SHT31;63749;49.186;9.222;2023-07-08T07:44:57;26.11;40.99
75170;SHT31;63749;49.186;9.222;2023-07-08T07:47:22;26.21;41.24
75170;SHT31;63749;49.186;9.222;2023-07-08T07:49:47;26.31;41.21
75170;SHT31;63749;49.186;9.222;2023-07-08T07:52:13;26.45;41.47
75170;SHT31;63749;49.186;9.222;2023-07-08T07:54:39;26.47;42.86
75170;SHT31;63749;49.186;9.222;2023-07-08T07:57:04;26.87;41.62
75170;SHT31;63749;49.186;9.222;2023-07-08T07:59:30;27.08;40.63
75170;SHT31;63749;49.186;9.222;2023-07-08T08:01:55;27.18;40.96
75170;SHT31;63749;49.186;9.222;2023-07-08T08:04:20;27.27;40.65
75170;SHT31;63749;49.186;9.222;2023-07-08T08:06:46;27.04;40.99
75170;SHT31;63749;49.186;9.222;2023-07-08T08:09:12;27.39;40.83
75170;SHT31;63749;49.186;9.222;2023-07-08T08:11:37;27.49;41.06
75170;SHT31;63749;49.186;9.222;2023-07-08T08:14:03;27.45;41.46
75170;SHT31;63749;49.186;9.222;2023-07-08T08:16:29;27.56;40.90
75170;SHT31;63749;49.186;9.222;2023-07-08T08:18:55;27.61;40.72
75170;SHT31;63749;49.186;9.222;2023-07-08T08:21:20;27.76;41.54
75170;SHT31;63749;49.186;9.222;2023-07-08T08:23:47;27.79;41.35
75170;SHT31;63749;49.186;9.222;2023-07-08T08:26:12;27.89;41.73
75170;SHT31;63749;49.186;9.222;2023-07-08T08:28:37;27.88;42.00
75170;SHT31;63749;49.186;9.222;2023-07-08T08:31:03;28.14;41.43
75170;SHT31;63749;49.186;9.222;2023-07-08T08:33:28;28.17;41.54
75170;SHT31;63749;49.186;9.222;2023-07-08T08:35:53;28.24;41.80
75170;SHT31;63749;49.186;9.222;2023-07-08T08:38:19;28.39;41.41
75170;SHT31;63749;49.186;9.222;2023-07-08T08:40:44;28.55;41.13
75170;SHT31;63749;49.186;9.222;2023-07-08T08:43:14;28.50;41.25
75170;SHT31;63749;49.186;9.222;2023-07-08T08:46:06;28.65;41.58
75170;SHT31;63749;49.186;9.222;2023-07-08T08:49:16;28.85;40.81
75170;SHT31;63749;49.186;9.222;2023-07-08T08:51:33;28.74;41.39
75170;SHT31;63749;49.186;9.222;2023-07-08T08:53:59;28.33;41.40
75170;SHT31;63749;49.186;9.222;2023-07-08T08:56:31;27.94;42.95
75170;SHT31;63749;49.186;9.222;2023-07-08T08:59:11;28.25;42.26
75170;SHT31;63749;49.186;9.222;2023-07-08T09:01:40;28.57;41.37
75170;SHT31;63749;49.186;9.222;2023-07-08T09:04:15;28.61;41.55
75170;SHT31;63749;49.186;9.222;2023-07-08T09:06:42;28.52;41.75
75170;SHT31;63749;49.186;9.222;2023-07-08T09:09:37;28.14;42.56
75170;SHT31;63749;49.186;9.222;2023-07-08T09:12:06;28.51;42.71
75170;SHT31;63749;49.186;9.222;2023-07-08T09:14:36;28.81;42.10
75170;SHT31;63749;49.186;9.222;2023-07-08T09:19:38;29.08;41.02
75170;SHT31;63749;49.186;9.222;2023-07-08T09:22:14;29.18;41.97
75170;SHT31;63749;49.186;9.222;2023-07-08T09:25:01;29.13;41.31
75170;SHT31;63749;49.186;9.222;2023-07-08T09:27:27;29.47;42.63
75170;SHT31;63749;49.186;9.222;2023-07-08T09:29:52;29.76;40.46
75170;SHT31;63749;49.186;9.222;2023-07-08T09:32:21;29.71;40.03
75170;SHT31;63749;49.186;9.222;2023-07-08T09:37:26;30.18;38.05
75170;SHT31;63749;49.186;9.222;2023-07-08T09:39:53;30.18;38.09
75170;SHT31;63749;49.186;9.222;2023-07-08T09:42:21;30.22;38.16
75170;SHT31;63749;49.186;9.222;2023-07-08T09:44:47;30.31;38.44
75170;SHT31;63749;49.186;9.222;2023-07-08T09:47:35;30.40;37.41
75170;SHT31;63749;49.186;9.222;2023-07-08T09:50:16;30.40;38.48
75170;SHT31;63749;49.186;9.222;2023-07-08T09:52:43;30.65;38.24
75170;SHT31;63749;49.186;9.222;2023-07-08T09:55:11;30.66;38.12
75170;SHT31;63749;49.186;9.222;2023-07-08T09:57:37;30.15;38.41
75170;SHT31;63749;49.186;9.222;2023-07-08T10:00:09;30.12;38.61
75170;SHT31;63749;49.186;9.222;2023-07-08T10:02:56;30.40;39.44
75170;SHT31;63749;49.186;9.222;2023-07-08T10:05:27;30.38;39.11
75170;SHT31;63749;49.186;9.222;2023-07-08T10:07:56;30.56;38.13
75170;SHT31;63749;49.186;9.222;2023-07-08T10:13:45;30.57;38.55
75170;SHT31;63749;49.186;9.222;2023-07-08T10:16:22;30.77;38.00
75170;SHT31;63749;49.186;9.222;2023-07-08T10:18:48;31.06;38.33
75170;SHT31;63749;49.186;9.222;2023-07-08T10:21:22;31.27;38.35
75170;SHT31;63749;49.186;9.222;2023-07-08T10:29:57;31.18;36.12
75170;SHT31;63749;49.186;9.222;2023-07-08T10:35:49;31.18;35.68
75170;SHT31;63749;49.186;9.222;2023-07-08T10:44:34;31.51;35.18
75170;SHT31;63749;49.186;9.222;2023-07-08T10:47:22;31.65;36.55
75170;SHT31;63749;49.186;9.222;2023-07-08T10:52:54;31.51;35.72
75170;SHT31;63749;49.186;9.222;2023-07-08T10:55:32;31.06;35.86
75170;SHT31;63749;49.186;9.222;2023-07-08T10:58:05;31.28;35.80
75170;SHT31;63749;49.186;9.222;2023-07-08T11:06:29;31.78;36.67
75170;SHT31;63749;49.186;9.222;2023-07-08T11:09:01;32.05;34.82
75170;SHT31;63749;49.186;9.222;2023-07-08T11:11:51;32.12;35.00
75170;SHT31;63749;49.186;9.222;2023-07-08T11:14:42;32.09;34.82
75170;SHT31;63749;49.186;9.222;2023-07-08T11:17:18;32.16;34.27
75170;SHT31;63749;49.186;9.222;2023-07-08T11:20:37;32.23;34.82
75170;SHT31;63749;49.186;9.222;2023-07-08T11:22:58;32.40;34.86
75170;SHT31;63749;49.186;9.222;2023-07-08T11:25:27;32.61;34.75
75170;SHT31;63749;49.186;9.222;2023-07-08T11:27:55;32.77;34.04
75170;SHT31;63749;49.186;9.222;2023-07-08T11:30:23;33.02;34.64
75170;SHT31;63749;49.186;9.222;2023-07-08T11:32:57;33.21;33.65
75170;SHT31;63749;49.186;9.222;2023-07-08T11:37:58;33.26;33.88
75170;SHT31;63749;49.186;9.222;2023-07-08T11:40:24;33.45;33.55
75170;SHT31;63749;49.186;9.222;2023-07-08T11:42:52;33.53;32.84
75170;SHT31;63749;49.186;9.222;2023-07-08T11:47:47;33.19;33.29
75170;SHT31;63749;49.186;9.222;2023-07-08T11:50:23;33.15;33.69
75170;SHT31;63749;49.186;9.222;2023-07-08T11:53:11;33.30;33.39
75170;SHT31;63749;49.186;9.222;2023-07-08T11:55:57;33.39;32.97
75170;SHT31;63749;49.186;9.222;2023-07-08T11:58:25;33.55;32.74
75170;SHT31;63749;49.186;9.222;2023-07-08T12:01:00;33.35;32.91
75170;SHT31;63749;49.186;9.222;2023-07-08T12:03:37;33.36;32.79
75170;SHT31;63749;49.186;9.222;2023-07-08T12:08:57;33.58;32.77
75170;SHT31;63749;49.186;9.222;2023-07-08T12:11:34;33.74;32.43
75170;SHT31;63749;49.186;9.222;2023-07-08T12:14:02;33.62;32.57
75170;SHT31;63749;49.186;9.222;2023-07-08T12:16:30;33.63;32.42
75170;SHT31;63749;49.186;9.222;2023-07-08T12:18:57;33.62;31.97
75170;SHT31;63749;49.186;9.222;2023-07-08T12:21:26;33.72;31.51
75170;SHT31;63749;49.186;9.222;2023-07-08T12:23:51;33.46;31.98
75170;SHT31;63749;49.186;9.222;2023-07-08T12:26:17;33.87;31.93
75170;SHT31;63749;49.186;9.222;2023-07-08T12:28:43;33.80;31.61
75170;SHT31;63749;49.186;9.222;2023-07-08T12:31:19;33.72;31.35
75170;SHT31;63749;49.186;9.222;2023-07-08T12:33:46;34.01;31.34
75170;SHT31;63749;49.186;9.222;2023-07-08T12:36:20;34.72;29.71
75170;SHT31;63749;49.186;9.222;2023-07-08T12:38:47;35.40;29.09
75170;SHT31;63749;49.186;9.222;2023-07-08T12:41:21;36.12;28.30
75170;SHT31;63749;49.186;9.222;2023-07-08T12:43:48;36.68;27.59
75170;SHT31;63749;49.186;9.222;2023-07-08T12:46:16;37.04;27.13
75170;SHT31;63749;49.186;9.222;2023-07-08T12:48:41;37.92;27.16
75170;SHT31;63749;49.186;9.222;2023-07-08T12:51:13;38.63;25.84
75170;SHT31;63749;49.186;9.222;2023-07-08T12:53:39;38.67;25.91
75170;SHT31;63749;49.186;9.222;2023-07-08T12:56:05;39.69;24.89
75170;SHT31;63749;49.186;9.222;2023-07-08T12:58:34;40.21;24.77
75170;SHT31;63749;49.186;9.222;2023-07-08T13:01:02;41.09;23.02
75170;SHT31;63749;49.186;9.222;2023-07-08T13:03:31;41.70;22.83
75170;SHT31;63749;49.186;9.222;2023-07-08T13:05:59;41.95;22.65
75170;SHT31;63749;49.186;9.222;2023-07-08T13:08:29;41.65;22.77
75170;SHT31;63749;49.186;9.222;2023-07-08T13:10:57;41.40;22.78
75170;SHT31;63749;49.186;9.222;2023-07-08T13:13:26;42.25;21.61
75170;SHT31;63749;49.186;9.222;2023-07-08T13:15:53;42.54;20.86
75170;SHT31;63749;49.186;9.222;2023-07-08T13:18:28;42.36;20.80
75170;SHT31;63749;49.186;9.222;2023-07-08T13:20:55;41.52;21.90
75170;SHT31;63749;49.186;9.222;2023-07-08T13:23:24;41.74;22.05
75170;SHT31;63749;49.186;9.222;2023-07-08T13:25:51;41.78;22.24
75170;SHT31;63749;49.186;9.222;2023-07-08T13:28:22;41.94;21.83
75170;SHT31;63749;49.186;9.222;2023-07-08T13:30:58;42.50;22.28
75170;SHT31;63749;49.186;9.222;2023-07-08T13:33:29;42.80;21.90
75170;SHT31;63749;49.186;9.222;2023-07-08T13:35:54;42.76;21.74
75170;SHT31;63749;49.186;9.222;2023-07-08T13:38:23;42.69;21.75
75170;SHT31;63749;49.186;9.222;2023-07-08T13:40:53;43.09;21.73
75170;SHT31;63749;49.186;9.222;2023-07-08T13:43:24;43.74;20.71
75170;SHT31;63749;49.186;9.222;2023-07-08T13:45:50;43.33;20.73
75170;SHT31;63749;49.186;9.222;2023-07-08T13:51:20;43.14;20.56
75170;SHT31;63749;49.186;9.222;2023-07-08T13:53:52;43.71;20.40
75170;SHT31;63749;49.186;9.222;2023-07-08T13:56:24;43.55;20.11
75170;SHT31;63749;49.186;9.222;2023-07-08T13:58:53;43.41;20.36
75170;SHT31;63749;49.186;9.222;2023-07-08T14:01:20;43.99;19.74
75170;SHT31;63749;49.186;9.222;2023-07-08T14:03:46;43.20;20.32
75170;SHT31;63749;49.186;9.222;2023-07-08T14:06:16;39.24;23.64
75170;SHT31;63749;49.186;9.222;2023-07-08T14:08:42;41.61;21.75
75170;SHT31;63749;49.186;9.222;2023-07-08T14:11:07;42.65;20.57
75170;SHT31;63749;49.186;9.222;2023-07-08T14:13:33;41.76;22.19
75170;SHT31;63749;49.186;9.222;2023-07-08T14:15:58;43.41;20.52
75170;SHT31;63749;49.186;9.222;2023-07-08T14:25:25;44.40;19.56
75170;SHT31;63749;49.186;9.222;2023-07-08T14:28:01;44.57;19.80
75170;SHT31;63749;49.186;9.222;2023-07-08T14:30:27;44.46;19.83
75170;SHT31;63749;49.186;9.222;2023-07-08T14:32:53;43.64;20.33
75170;SHT31;63749;49.186;9.222;2023-07-08T14:35:23;43.60;20.76
75170;SHT31;63749;49.186;9.222;2023-07-08T14:37:51;43.07;21.28
75170;SHT31;63749;49.186;9.222;2023-07-08T14:42:45;44.06;20.08
75170;SHT31;63749;49.186;9.222;2023-07-08T14:45:21;44.86;19.72
75170;SHT31;63749;49.186;9.222;2023-07-08T14:47:46;44.53;19.84
75170;SHT31;63749;49.186;9.222;2023-07-08T14:50:17;44.22;19.91
75170;SHT31;63749;49.186;9.222;2023-07-08T14:52:44;44.36;20.11
75170;SHT31;63749;49.186;9.222;2023-07-08T14:55:10;44.90;19.49
75170;SHT31;63749;49.186;9.222;2023-07-08T14:57:42;44.69;19.63
75170;SHT31;63749;49.186;9.222;2023-07-08T15:00:15;45.25;19.02
75170;SHT31;63749;49.186;9.222;2023-07-08T15:02:42;45.59;19.10
75170;SHT31;63749;49.186;9.222;2023-07-08T15:07:47;43.74;20.46
75170;SHT31;63749;49.186;9.222;2023-07-08T15:10:13;43.55;20.81
75170;SHT31;63749;49.186;9.222;2023-07-08T15:12:38;43.50;21.24
75170;SHT31;63749;49.186;9.222;2023-07-08T15:15:04;44.80;19.72
75170;SHT31;63749;49.186;9.222;2023-07-08T15:17:32;45.04;19.48
75170;SHT31;63749;49.186;9.222;2023-07-08T15:20:13;44.11;19.89
75170;SHT31;63749;49.186;9.222;2023-07-08T15:22:40;42.82;20.76
75170;SHT31;63749;49.186;9.222;2023-07-08T15:25:07;43.65;20.49
75170;SHT31;63749;49.186;9.222;2023-07-08T15:27:33;44.77;19.44
75170;SHT31;63749;49.186;9.222;2023-07-08T15:29:59;44.08;19.78
75170;SHT31;63749;49.186;9.222;2023-07-08T15:32:24;44.81;19.16
75170;SHT31;63749;49.186;9.222;2023-07-08T15:34:49;45.01;19.15
75170;SHT31;63749;49.186;9.222;2023-07-08T15:37:15;45.18;19.03
75170;SHT31;63749;49.186;9.222;2023-07-08T15:39:40;44.77;19.33
75170;SHT31;63749;49.186;9.222;2023-07-08T15:42:10;44.78;19.35
75170;SHT31;63749;49.186;9.222;2023-07-08T15:44:36;45.44;18.92
75170;SHT31;63749;49.186;9.222;2023-07-08T15:47:01;45.35;19.12
75170;SHT31;63749;49.186;9.222;2023-07-08T15:49:27;43.47;20.32
75170;SHT31;63749;49.186;9.222;2023-07-08T15:51:55;43.10;20.46
75170;SHT31;63749;49.186;9.222;2023-07-08T15:54:20;41.46;22.00
75170;SHT31;63749;49.186;9.222;2023-07-08T15:56:47;40.71;22.37
75170;SHT31;63749;49.186;9.222;2023-07-08T15:59:20;41.09;21.88
75170;SHT31;63749;49.186;9.222;2023-07-08T16:01:46;41.65;21.43
75170;SHT31;63749;49.186;9.222;2023-07-08T16:04:44;42.48;20.93
75170;SHT31;63749;49.186;9.222;2023-07-08T16:07:24;43.15;20.59
75170;SHT31;63749;49.186;9.222;2023-07-08T16:09:50;43.00;21.26
75170;SHT31;63749;49.186;9.222;2023-07-08T16:12:18;43.07;21.29
75170;SHT31;63749;49.186;9.222;2023-07-08T16:14:52;44.93;18.95
75170;SHT31;63749;49.186;9.222;2023-07-08T16:17:18;43.68;20.56
75170;SHT31;63749;49.186;9.222;2023-07-08T16:19:43;43.50;20.16
75170;SHT31;63749;49.186;9.222;2023-07-08T16:56:42;43.11;20.99
75170;SHT31;63749;49.186;9.222;2023-07-08T16:59:14;43.06;21.00
75170;SHT31;63749;49.186;9.222;2023-07-08T17:12:39;43.06;20.37
75170;SHT31;63749;49.186;9.222;2023-07-08T17:49:50;40.16;22.90
75170;SHT31;63749;49.186;9.222;2023-07-08T17:59:28;39.61;23.46
75170;SHT31;63749;49.186;9.222;2023-07-08T18:05:03;36.86;26.55
75170;SHT31;63749;49.186;9.222;2023-07-08T18:07:29;35.76;27.58
75170;SHT31;63749;49.186;9.222;2023-07-08T18:09:54;34.89;28.74